createdAt,value
2017-09-26T00:00:18.770Z,35.1
2017-09-26T00:01:20.394Z,33.2
2017-09-26T00:02:22.020Z,36.5
2017-09-26T00:03:23.652Z,31.0
2017-09-26T00:04:25.282Z,33.2
2017-09-26T00:05:26.917Z,33.7
2017-09-26T00:06:28.541Z,33.5
2017-09-26T00:07:30.174Z,38.7
2017-09-26T00:08:31.799Z,33.5
2017-09-26T00:09:33.431Z,36.1
2017-09-26T00:10:35.061Z,33.8
2017-09-26T00:11:36.700Z,31.5
2017-09-26T00:12:38.334Z,32.4
2017-09-26T00:13:39.967Z,37.6
2017-09-26T00:14:41.596Z,32.6
2017-09-26T00:15:43.222Z,32.9
2017-09-26T00:16:44.857Z,34.8
2017-09-26T00:17:46.485Z,38.5
2017-09-26T00:18:48.116Z,36.6
2017-09-26T00:19:49.747Z,36.6
2017-09-26T00:20:51.376Z,33.9
2017-09-26T00:21:53.007Z,32.3
2017-09-26T00:22:54.632Z,32.9
2017-09-26T00:23:56.268Z,30.4
2017-09-26T00:24:57.894Z,33.2
2017-09-26T00:25:59.523Z,33.4
2017-09-26T00:27:01.154Z,32.2
2017-09-26T00:28:02.784Z,36.9
2017-09-26T00:29:04.639Z,36.8
2017-09-26T00:30:06.354Z,36.2
2017-09-26T00:31:08.187Z,31.4
2017-09-26T00:32:09.929Z,34.9
2017-09-26T00:33:11.818Z,33.9
2017-09-26T00:34:13.953Z,34.8
2017-09-26T00:35:15.733Z,34.4
2017-09-26T00:36:17.424Z,33.3
2017-09-26T00:37:19.171Z,34.8
2017-09-26T00:38:20.792Z,36.3
2017-09-26T00:39:22.528Z,36.6
2017-09-26T00:40:24.453Z,40.5
2017-09-26T00:41:26.105Z,37.1
2017-09-26T00:42:27.995Z,35.2
2017-09-26T00:43:29.746Z,36.3
2017-09-26T00:44:31.586Z,40.0
2017-09-26T00:45:33.232Z,31.6
2017-09-26T00:46:34.939Z,29.7
2017-09-26T00:47:36.802Z,28.5
2017-09-26T00:48:39.050Z,32.0
2017-09-26T00:49:40.965Z,29.4
2017-09-26T00:50:43.437Z,32.7
2017-09-26T00:51:45.634Z,30.0
2017-09-26T00:52:47.697Z,28.3
2017-09-26T00:53:49.782Z,27.4
2017-09-26T00:54:51.926Z,27.8
2017-09-26T00:55:53.922Z,30.1
2017-09-26T00:56:55.839Z,32.9
2017-09-26T00:57:57.787Z,31.2
2017-09-26T00:58:59.863Z,30.4
2017-09-26T01:00:02.053Z,28.5
2017-09-26T01:01:04.322Z,29.8
2017-09-26T01:02:06.328Z,28.7
2017-09-26T01:03:08.289Z,29.0
2017-09-26T01:04:10.427Z,28.6
2017-09-26T01:05:12.531Z,27.6
2017-09-26T01:06:14.402Z,25.8
2017-09-26T01:07:16.461Z,29.2
2017-09-26T01:08:18.278Z,28.6
2017-09-26T01:09:20.401Z,32.0
2017-09-26T01:10:22.469Z,38.8
2017-09-26T01:11:24.617Z,30.9
2017-09-26T01:12:26.593Z,31.8
2017-09-26T01:13:28.734Z,37.5
2017-09-26T01:14:30.650Z,35.5
2017-09-26T01:15:32.649Z,39.6
2017-09-26T01:16:34.682Z,36.6
2017-09-26T01:17:36.715Z,35.5
2017-09-26T01:18:38.796Z,34.4
2017-09-26T01:19:40.951Z,35.5
2017-09-26T01:20:43.173Z,31.5
2017-09-26T01:21:45.182Z,29.3
2017-09-26T01:22:47.191Z,33.2
2017-09-26T01:23:49.186Z,33.0
2017-09-26T01:24:51.310Z,28.2
2017-09-26T01:25:53.313Z,29.3
2017-09-26T01:26:55.456Z,29.9
2017-09-26T01:27:57.713Z,34.5
2017-09-26T01:28:59.614Z,32.6
2017-09-26T01:30:01.608Z,33.0
2017-09-26T01:31:03.853Z,33.6
2017-09-26T01:32:05.894Z,37.0
2017-09-26T01:33:07.997Z,35.0
2017-09-26T01:34:10.256Z,37.2
2017-09-26T01:35:12.047Z,38.3
2017-09-26T01:36:14.269Z,36.6
2017-09-26T01:37:16.352Z,35.1
2017-09-26T01:38:18.231Z,38.5
2017-09-26T01:39:20.218Z,35.1
2017-09-26T01:40:22.250Z,37.3
2017-09-26T01:41:24.153Z,34.4
2017-09-26T01:42:26.097Z,36.6
2017-09-26T01:43:28.024Z,35.6
2017-09-26T01:44:30.224Z,37.2
2017-09-26T01:45:32.207Z,36.4
2017-09-26T01:46:34.187Z,39.9
2017-09-26T01:47:36.226Z,39.4
2017-09-26T01:48:38.069Z,38.9
2017-09-26T01:49:40.180Z,32.8
2017-09-26T01:50:42.272Z,34.2
2017-09-26T01:51:44.205Z,37.2
2017-09-26T01:52:46.087Z,35.8
2017-09-26T01:53:47.946Z,38.0
2017-09-26T01:54:50.011Z,40.7
2017-09-26T01:55:52.147Z,37.2
2017-09-26T01:56:54.333Z,35.1
2017-09-26T01:57:56.616Z,32.8
2017-09-26T01:58:58.847Z,34.3
2017-09-26T02:00:01.266Z,33.8
2017-09-26T02:01:03.295Z,29.0
2017-09-26T02:02:05.590Z,32.8
2017-09-26T02:03:07.630Z,32.1
2017-09-26T02:04:09.614Z,32.6
2017-09-26T02:05:11.799Z,33.7
2017-09-26T02:06:13.913Z,33.8
2017-09-26T02:07:15.884Z,34.5
2017-09-26T02:08:17.969Z,40.0
2017-09-26T02:09:19.828Z,36.3
2017-09-26T02:10:21.932Z,35.6
2017-09-26T02:11:23.907Z,35.0
2017-09-26T02:12:25.505Z,35.6
2017-09-26T02:13:27.129Z,34.3
2017-09-26T02:14:28.747Z,29.8
2017-09-26T02:15:30.449Z,32.0
2017-09-26T02:16:32.078Z,28.6
2017-09-26T02:17:33.707Z,33.0
2017-09-26T02:18:35.390Z,31.5
2017-09-26T02:19:37.016Z,29.8
2017-09-26T02:20:38.637Z,31.4
2017-09-26T02:21:40.371Z,31.0
2017-09-26T02:22:42.085Z,31.6
2017-09-26T02:23:43.708Z,33.5
2017-09-26T02:24:45.327Z,31.3
2017-09-26T02:25:46.953Z,33.2
2017-09-26T02:26:48.577Z,31.0
2017-09-26T02:27:50.202Z,31.0
2017-09-26T02:28:51.819Z,32.8
2017-09-26T02:29:53.443Z,32.0
2017-09-26T02:30:55.074Z,30.4
2017-09-26T02:31:56.703Z,31.1
2017-09-26T02:32:58.330Z,30.6
2017-09-26T02:33:59.961Z,30.8
2017-09-26T02:35:01.589Z,32.3
2017-09-26T02:36:03.271Z,31.8
2017-09-26T02:37:04.946Z,33.1
2017-09-26T02:38:06.572Z,33.2
2017-09-26T02:39:08.193Z,32.9
2017-09-26T02:40:09.815Z,33.7
2017-09-26T02:41:11.442Z,31.7
2017-09-26T02:42:13.084Z,34.5
2017-09-26T02:43:14.750Z,31.4
2017-09-26T02:44:16.372Z,31.5
2017-09-26T02:45:17.998Z,34.2
2017-09-26T02:46:19.622Z,33.5
2017-09-26T02:47:21.250Z,34.9
2017-09-26T02:48:22.889Z,32.9
2017-09-26T02:49:24.521Z,31.1
2017-09-26T02:50:26.142Z,32.2
2017-09-26T02:51:27.862Z,30.4
2017-09-26T02:52:29.490Z,31.1
2017-09-26T02:53:31.113Z,27.9
2017-09-26T02:54:32.744Z,30.2
2017-09-26T02:55:34.363Z,28.3
2017-09-26T02:56:36.088Z,31.5
2017-09-26T02:57:37.687Z,32.0
2017-09-26T02:58:39.310Z,30.2
2017-09-26T02:59:40.935Z,32.7
2017-09-26T03:00:42.557Z,29.4
2017-09-26T03:01:44.177Z,32.2
2017-09-26T03:02:45.801Z,28.5
2017-09-26T03:03:47.424Z,33.0
2017-09-26T03:04:49.044Z,30.6
2017-09-26T03:05:50.666Z,32.2
2017-09-26T03:06:52.290Z,30.0
2017-09-26T03:07:53.912Z,29.9
2017-09-26T03:08:55.533Z,33.4
2017-09-26T03:09:57.155Z,30.0
2017-09-26T03:10:58.775Z,32.0
2017-09-26T03:12:00.402Z,30.8
2017-09-26T03:13:02.024Z,32.6
2017-09-26T03:14:03.646Z,30.5
2017-09-26T03:15:05.272Z,32.6
2017-09-26T03:16:06.909Z,33.8
2017-09-26T03:17:08.528Z,31.7
2017-09-26T03:18:10.150Z,32.3
2017-09-26T03:19:11.772Z,31.4
2017-09-26T03:20:13.397Z,30.8
2017-09-26T03:21:15.020Z,31.6
2017-09-26T03:22:16.662Z,30.9
2017-09-26T03:23:18.285Z,28.7
2017-09-26T03:24:19.912Z,28.6
2017-09-26T03:25:21.532Z,26.9
2017-09-26T03:26:23.152Z,24.9
2017-09-26T03:27:24.775Z,25.6
2017-09-26T03:28:26.397Z,28.9
2017-09-26T03:29:28.019Z,27.5
2017-09-26T03:30:29.644Z,26.1
2017-09-26T03:31:31.263Z,24.6
2017-09-26T03:32:32.882Z,29.8
2017-09-26T03:33:34.505Z,28.0
2017-09-26T03:34:36.129Z,29.2
2017-09-26T03:35:37.751Z,27.4
2017-09-26T03:36:39.376Z,28.5
2017-09-26T03:37:40.992Z,28.2
2017-09-26T03:38:42.618Z,27.2
2017-09-26T03:39:44.246Z,28.1
2017-09-26T03:40:45.866Z,28.6
2017-09-26T03:41:47.487Z,27.3
2017-09-26T03:42:49.113Z,28.8
2017-09-26T03:43:50.735Z,27.5
2017-09-26T03:44:52.353Z,28.3
2017-09-26T03:45:53.974Z,26.9
2017-09-26T03:46:55.604Z,27.0
2017-09-26T03:47:57.225Z,28.3
2017-09-26T03:48:58.847Z,31.8
2017-09-26T03:50:00.471Z,31.0
2017-09-26T03:51:02.094Z,28.7
2017-09-26T03:52:03.715Z,27.7
2017-09-26T03:53:05.336Z,27.7
2017-09-26T03:54:06.957Z,27.1
2017-09-26T03:55:08.582Z,31.4
2017-09-26T03:56:10.204Z,27.7
2017-09-26T03:57:11.824Z,26.3
2017-09-26T03:58:13.450Z,27.4
2017-09-26T03:59:15.070Z,26.8
2017-09-26T04:00:16.771Z,28.4
2017-09-26T04:01:18.384Z,28.1
2017-09-26T04:02:20.006Z,32.2
2017-09-26T04:03:21.627Z,26.4
2017-09-26T04:04:23.250Z,28.6
2017-09-26T04:05:24.876Z,27.2
2017-09-26T04:06:26.497Z,25.7
2017-09-26T04:07:28.118Z,29.0
2017-09-26T04:08:29.755Z,28.2
2017-09-26T04:09:31.365Z,28.1
2017-09-26T04:10:32.987Z,26.8
2017-09-26T04:11:34.613Z,28.1
2017-09-26T04:12:36.235Z,27.6
2017-09-26T04:13:37.856Z,27.0
2017-09-26T04:14:39.480Z,29.2
2017-09-26T04:15:41.103Z,27.6
2017-09-26T04:16:42.725Z,26.5
2017-09-26T04:17:44.350Z,27.0
2017-09-26T04:18:45.972Z,29.7
2017-09-26T04:19:47.600Z,25.4
2017-09-26T04:20:49.219Z,28.8
2017-09-26T04:21:50.841Z,25.6
2017-09-26T04:22:52.463Z,25.6
2017-09-26T04:23:54.086Z,25.0
2017-09-26T04:24:55.708Z,25.4
2017-09-26T04:25:57.331Z,25.8
2017-09-26T04:26:58.954Z,23.1
2017-09-26T04:28:00.575Z,24.7
2017-09-26T04:29:02.198Z,23.8
2017-09-26T04:30:03.827Z,24.1
2017-09-26T04:31:05.442Z,23.4
2017-09-26T04:32:07.066Z,28.3
2017-09-26T04:33:08.692Z,26.1
2017-09-26T04:34:10.314Z,26.6
2017-09-26T04:35:11.936Z,27.1
2017-09-26T04:36:13.559Z,26.1
2017-09-26T04:37:15.180Z,25.9
2017-09-26T04:38:16.802Z,25.9
2017-09-26T04:39:18.425Z,25.4
2017-09-26T04:40:20.137Z,28.2
2017-09-26T04:41:21.764Z,28.3
2017-09-26T04:42:23.389Z,25.0
2017-09-26T04:43:25.010Z,26.7
2017-09-26T04:44:26.632Z,22.6
2017-09-26T04:45:28.252Z,24.8
2017-09-26T04:46:29.878Z,25.6
2017-09-26T04:47:31.509Z,26.7
2017-09-26T04:48:33.133Z,27.6
2017-09-26T04:49:34.770Z,28.1
2017-09-26T04:50:36.393Z,26.3
2017-09-26T04:51:38.015Z,25.2
2017-09-26T04:52:39.635Z,26.4
2017-09-26T04:53:41.258Z,25.6
2017-09-26T04:54:42.882Z,27.3
2017-09-26T04:55:44.508Z,29.0
2017-09-26T04:56:46.130Z,26.7
2017-09-26T04:57:47.750Z,25.9
2017-09-26T04:58:49.372Z,26.0
2017-09-26T04:59:50.993Z,29.1
2017-09-26T05:00:52.622Z,29.2
2017-09-26T05:01:54.245Z,24.0
2017-09-26T05:02:55.872Z,28.2
2017-09-26T05:03:57.492Z,24.3
2017-09-26T05:04:59.114Z,24.9
2017-09-26T05:06:00.737Z,24.0
2017-09-26T05:07:02.363Z,24.6
2017-09-26T05:08:03.981Z,25.8
2017-09-26T05:09:05.604Z,26.1
2017-09-26T05:10:07.229Z,30.0
2017-09-26T05:11:08.855Z,27.8
2017-09-26T05:12:10.472Z,26.0
2017-09-26T05:13:12.094Z,28.9
2017-09-26T05:14:13.719Z,29.2
2017-09-26T05:15:15.345Z,30.6
2017-09-26T05:16:16.970Z,27.1
2017-09-26T05:17:18.593Z,26.8
2017-09-26T05:18:20.217Z,32.2
2017-09-26T05:19:21.838Z,26.6
2017-09-26T05:20:23.465Z,27.4
2017-09-26T05:21:25.088Z,27.7
2017-09-26T05:22:26.711Z,26.5
2017-09-26T05:23:28.339Z,26.5
2017-09-26T05:24:29.963Z,27.1
2017-09-26T05:25:31.590Z,24.5
2017-09-26T05:26:33.208Z,28.6
2017-09-26T05:27:34.833Z,27.1
2017-09-26T05:28:36.457Z,27.1
2017-09-26T05:29:38.081Z,25.0
2017-09-26T05:30:39.705Z,25.8
2017-09-26T05:31:41.329Z,24.3
2017-09-26T05:32:42.948Z,28.2
2017-09-26T05:33:44.573Z,27.5
2017-09-26T05:34:46.200Z,24.7
2017-09-26T05:35:47.822Z,27.2
2017-09-26T05:36:49.448Z,24.2
2017-09-26T05:37:51.072Z,27.0
2017-09-26T05:38:52.698Z,23.5
2017-09-26T05:39:54.321Z,26.9
2017-09-26T05:40:55.945Z,26.2
2017-09-26T05:41:57.572Z,26.5
2017-09-26T05:42:59.194Z,27.4
2017-09-26T05:44:00.820Z,23.7
2017-09-26T05:45:02.449Z,23.6
2017-09-26T05:46:04.077Z,24.2
2017-09-26T05:47:05.702Z,23.3
2017-09-26T05:48:07.326Z,24.7
2017-09-26T05:49:08.952Z,26.1
2017-09-26T05:50:10.578Z,24.6
2017-09-26T05:51:12.202Z,26.5
2017-09-26T05:52:13.829Z,25.8
2017-09-26T05:53:15.456Z,25.8
2017-09-26T05:54:17.085Z,25.6
2017-09-26T05:55:18.717Z,27.4
2017-09-26T05:56:20.337Z,30.0
2017-09-26T05:57:21.965Z,33.3
2017-09-26T05:58:23.588Z,28.8
2017-09-26T05:59:25.219Z,31.7
2017-09-26T06:00:26.845Z,34.5
2017-09-26T06:01:28.472Z,33.9
2017-09-26T06:02:30.099Z,29.8
2017-09-26T06:03:31.723Z,31.4
2017-09-26T06:04:33.349Z,31.5
2017-09-26T06:05:34.975Z,34.3
2017-09-26T06:06:36.603Z,27.3
2017-09-26T06:07:38.235Z,29.6
2017-09-26T06:08:39.862Z,24.6
2017-09-26T06:09:41.483Z,26.5
2017-09-26T06:10:43.109Z,22.0
2017-09-26T06:11:44.737Z,26.2
2017-09-26T06:12:46.362Z,24.2
2017-09-26T06:13:47.992Z,24.5
2017-09-26T06:14:49.619Z,23.4
2017-09-26T06:15:51.253Z,23.5
2017-09-26T06:16:52.879Z,30.1
2017-09-26T06:17:54.505Z,26.4
2017-09-26T06:18:56.130Z,30.0
2017-09-26T06:19:57.756Z,28.5
2017-09-26T06:20:59.382Z,27.0
2017-09-26T06:22:01.007Z,27.9
2017-09-26T06:23:02.651Z,25.2
2017-09-26T06:24:04.261Z,25.5
2017-09-26T06:25:05.887Z,26.3
2017-09-26T06:26:07.515Z,24.8
2017-09-26T06:27:09.137Z,24.4
2017-09-26T06:28:10.766Z,28.6
2017-09-26T06:29:12.392Z,27.1
2017-09-26T06:30:14.018Z,25.4
2017-09-26T06:31:15.646Z,25.6
2017-09-26T06:32:17.274Z,24.8
2017-09-26T06:33:18.897Z,26.9
2017-09-26T06:34:20.526Z,25.6
2017-09-26T06:35:22.154Z,26.4
2017-09-26T06:36:23.782Z,29.0
2017-09-26T06:37:25.415Z,22.2
2017-09-26T06:38:27.043Z,26.9
2017-09-26T06:39:28.671Z,24.0
2017-09-26T06:40:30.297Z,24.4
2017-09-26T06:41:31.926Z,26.9
2017-09-26T06:42:33.582Z,23.5
2017-09-26T06:43:35.210Z,24.8
2017-09-26T06:44:36.837Z,23.0
2017-09-26T06:45:38.464Z,26.6
2017-09-26T06:46:40.102Z,24.8
2017-09-26T06:47:41.727Z,25.1
2017-09-26T06:48:43.354Z,28.4
2017-09-26T06:49:44.980Z,28.4
2017-09-26T06:50:46.611Z,23.5
2017-09-26T06:51:48.233Z,24.5
2017-09-26T06:52:49.858Z,25.1
2017-09-26T06:53:51.486Z,26.7
2017-09-26T06:54:53.114Z,25.9
2017-09-26T06:55:54.741Z,26.4
2017-09-26T06:56:56.367Z,25.1
2017-09-26T06:58:08.811Z,28.6
2017-09-26T06:59:10.438Z,26.4
2017-09-26T07:00:12.063Z,27.1
2017-09-26T07:01:13.687Z,29.0
2017-09-26T07:02:15.315Z,30.0
2017-09-26T07:03:16.940Z,24.6
2017-09-26T07:04:18.566Z,26.1
2017-09-26T07:05:20.195Z,25.4
2017-09-26T07:06:21.819Z,26.1
2017-09-26T07:07:23.449Z,28.0
2017-09-26T07:08:25.076Z,27.1
2017-09-26T07:09:26.703Z,27.5
2017-09-26T07:10:28.328Z,25.6
2017-09-26T07:11:29.956Z,24.3
2017-09-26T07:12:31.586Z,25.9
2017-09-26T07:13:33.212Z,24.9
2017-09-26T07:14:34.839Z,25.3
2017-09-26T07:15:36.466Z,24.3
2017-09-26T07:16:38.093Z,27.6
2017-09-26T07:17:39.720Z,28.5
2017-09-26T07:18:41.347Z,28.2
2017-09-26T07:19:42.976Z,25.7
2017-09-26T07:20:44.601Z,25.1
2017-09-26T07:21:46.234Z,24.2
2017-09-26T07:22:47.858Z,24.8
2017-09-26T07:23:49.488Z,25.6
2017-09-26T07:24:51.117Z,26.1
2017-09-26T07:25:52.745Z,26.9
2017-09-26T07:26:54.376Z,27.0
2017-09-26T07:27:56.005Z,25.1
2017-09-26T07:28:57.634Z,25.4
2017-09-26T07:29:59.260Z,27.0
2017-09-26T07:31:00.889Z,27.0
2017-09-26T07:32:02.521Z,24.7
2017-09-26T07:33:04.150Z,25.8
2017-09-26T07:34:05.778Z,24.9
2017-09-26T07:35:07.408Z,26.3
2017-09-26T07:36:09.036Z,24.9
2017-09-26T07:37:10.664Z,23.3
2017-09-26T07:38:12.291Z,26.3
2017-09-26T07:39:13.918Z,24.9
2017-09-26T07:40:15.547Z,28.7
2017-09-26T07:41:17.176Z,27.9
2017-09-26T07:42:18.814Z,25.8
2017-09-26T07:43:20.440Z,27.5
2017-09-26T07:44:22.069Z,24.4
2017-09-26T07:45:23.695Z,26.7
2017-09-26T07:46:25.324Z,26.2
2017-09-26T07:47:26.958Z,26.5
2017-09-26T07:48:28.590Z,26.9
2017-09-26T07:49:30.218Z,28.5
2017-09-26T07:50:31.845Z,27.1
2017-09-26T07:51:33.476Z,27.6
2017-09-26T07:52:35.103Z,29.0
2017-09-26T07:53:36.731Z,27.9
2017-09-26T07:54:38.359Z,25.6
2017-09-26T07:55:39.992Z,27.3
2017-09-26T07:56:41.614Z,25.6
2017-09-26T07:57:43.247Z,26.1
2017-09-26T07:58:44.870Z,22.9
2017-09-26T07:59:46.502Z,24.0
2017-09-26T08:00:48.130Z,24.8
2017-09-26T08:01:49.759Z,23.4
2017-09-26T08:02:51.394Z,23.6
2017-09-26T08:03:53.023Z,23.0
2017-09-26T08:04:54.651Z,22.7
2017-09-26T08:05:56.277Z,25.1
2017-09-26T08:06:57.903Z,23.2
2017-09-26T08:07:59.541Z,23.0
2017-09-26T08:09:01.168Z,23.5
2017-09-26T08:10:02.797Z,21.5
2017-09-26T08:11:04.457Z,21.0
2017-09-26T08:12:06.072Z,23.3
2017-09-26T08:13:07.732Z,23.2
2017-09-26T08:14:09.366Z,20.8
2017-09-26T08:15:10.956Z,21.2
2017-09-26T08:16:12.587Z,23.1
2017-09-26T08:17:14.215Z,20.3
2017-09-26T08:18:15.843Z,19.9
2017-09-26T08:19:17.473Z,20.6
2017-09-26T08:20:19.098Z,21.6
2017-09-26T08:21:20.728Z,21.7
2017-09-26T08:22:22.355Z,19.6
2017-09-26T08:23:23.988Z,19.9
2017-09-26T08:24:25.618Z,21.9
2017-09-26T08:25:27.248Z,20.9
2017-09-26T08:26:28.874Z,19.9
2017-09-26T08:27:30.501Z,19.5
2017-09-26T08:28:32.141Z,19.4
2017-09-26T08:29:33.771Z,18.4
2017-09-26T08:30:35.398Z,21.0
2017-09-26T08:31:37.023Z,19.9
2017-09-26T08:32:38.654Z,21.4
2017-09-26T08:33:40.279Z,20.3
2017-09-26T08:34:41.910Z,22.3
2017-09-26T08:35:43.539Z,19.5
2017-09-26T08:36:45.170Z,18.6
2017-09-26T08:37:46.798Z,19.1
2017-09-26T08:38:48.431Z,18.5
2017-09-26T08:39:50.057Z,18.9
2017-09-26T08:40:51.694Z,19.6
2017-09-26T08:41:53.326Z,19.9
2017-09-26T08:42:54.951Z,18.9
2017-09-26T08:43:56.584Z,18.6
2017-09-26T08:44:58.213Z,18.3
2017-09-26T08:45:59.844Z,19.2
2017-09-26T08:47:01.471Z,21.4
2017-09-26T08:48:03.090Z,19.2
2017-09-26T08:49:04.726Z,19.8
2017-09-26T08:50:06.355Z,18.8
2017-09-26T08:51:07.983Z,20.2
2017-09-26T08:52:09.615Z,20.2
2017-09-26T08:53:11.243Z,20.5
2017-09-26T08:54:12.871Z,18.3
2017-09-26T08:55:14.501Z,16.6
2017-09-26T08:56:16.131Z,18.1
2017-09-26T08:57:17.760Z,21.1
2017-09-26T08:58:19.388Z,18.8
2017-09-26T08:59:21.015Z,20.4
2017-09-26T09:00:22.643Z,18.1
2017-09-26T09:01:24.272Z,16.7
2017-09-26T09:02:25.900Z,17.8
2017-09-26T09:03:27.530Z,19.2
2017-09-26T09:04:29.161Z,17.0
2017-09-26T09:05:30.799Z,18.2
2017-09-26T09:06:32.427Z,17.9
2017-09-26T09:07:34.063Z,17.8
2017-09-26T09:08:35.686Z,18.3
2017-09-26T09:09:37.315Z,18.3
2017-09-26T09:10:38.943Z,18.1
2017-09-26T09:11:40.570Z,18.0
2017-09-26T09:12:42.198Z,19.2
2017-09-26T09:13:43.829Z,18.4
2017-09-26T09:14:45.469Z,18.6
2017-09-26T09:15:47.108Z,19.0
2017-09-26T09:16:48.748Z,19.3
2017-09-26T09:17:50.366Z,19.2
2017-09-26T09:18:51.996Z,21.0
2017-09-26T09:19:53.626Z,19.3
2017-09-26T09:20:55.254Z,20.3
2017-09-26T09:21:56.887Z,20.4
2017-09-26T09:22:58.514Z,20.2
2017-09-26T09:24:00.143Z,17.2
2017-09-26T09:25:01.773Z,19.7
2017-09-26T09:26:03.397Z,18.8
2017-09-26T09:27:05.031Z,19.5
2017-09-26T09:28:06.656Z,19.2
2017-09-26T09:29:08.288Z,16.9
2017-09-26T09:30:09.918Z,21.5
2017-09-26T09:31:11.546Z,20.2
2017-09-26T09:32:13.174Z,20.0
2017-09-26T09:33:14.803Z,19.1
2017-09-26T09:34:16.433Z,18.5
2017-09-26T09:35:18.062Z,21.7
2017-09-26T09:36:19.711Z,18.4
2017-09-26T09:37:21.356Z,17.9
2017-09-26T09:38:23.011Z,18.3
2017-09-26T09:39:24.627Z,20.0
2017-09-26T09:40:26.257Z,18.0
2017-09-26T09:41:27.890Z,17.1
2017-09-26T09:42:29.529Z,19.3
2017-09-26T09:43:31.154Z,18.1
2017-09-26T09:44:32.781Z,16.9
2017-09-26T09:45:34.414Z,18.7
2017-09-26T09:46:36.042Z,19.0
2017-09-26T09:47:37.729Z,20.6
2017-09-26T09:48:39.335Z,21.4
2017-09-26T09:49:40.951Z,19.9
2017-09-26T09:50:42.572Z,22.9
2017-09-26T09:51:44.196Z,20.6
2017-09-26T09:52:45.822Z,19.9
2017-09-26T09:53:47.453Z,20.0
2017-09-26T09:54:49.082Z,19.2
2017-09-26T09:55:50.730Z,17.9
2017-09-26T09:56:52.360Z,18.8
2017-09-26T09:57:53.990Z,21.0
2017-09-26T09:58:55.623Z,18.9
2017-09-26T09:59:57.249Z,20.5
2017-09-26T10:00:58.877Z,19.8
2017-09-26T10:02:00.506Z,19.4
2017-09-26T10:03:02.144Z,18.6
2017-09-26T10:04:03.781Z,19.9
2017-09-26T10:05:05.416Z,18.8
2017-09-26T10:06:07.042Z,19.8
2017-09-26T10:07:08.673Z,20.2
2017-09-26T10:08:10.307Z,18.3
2017-09-26T10:09:11.935Z,16.4
2017-09-26T10:10:13.566Z,19.9
2017-09-26T10:11:15.207Z,18.3
2017-09-26T10:12:16.844Z,17.6
2017-09-26T10:13:18.476Z,16.9
2017-09-26T10:14:20.109Z,17.8
2017-09-26T10:15:21.740Z,17.7
2017-09-26T10:16:23.370Z,17.3
2017-09-26T10:17:25.003Z,17.5
2017-09-26T10:18:26.664Z,19.4
2017-09-26T10:19:28.268Z,19.7
2017-09-26T10:20:29.896Z,20.4
2017-09-26T10:21:31.528Z,19.4
2017-09-26T10:22:33.156Z,19.8
2017-09-26T10:23:34.795Z,19.5
2017-09-26T10:24:36.429Z,20.9
2017-09-26T10:25:38.065Z,18.0
2017-09-26T10:26:39.696Z,18.2
2017-09-26T10:27:41.327Z,18.1
2017-09-26T10:28:42.959Z,18.0
2017-09-26T10:29:44.596Z,17.9
2017-09-26T10:30:46.229Z,18.8
2017-09-26T10:31:47.859Z,18.7
2017-09-26T10:32:49.492Z,17.0
2017-09-26T10:33:51.124Z,15.9
2017-09-26T10:34:52.758Z,17.9
2017-09-26T10:35:54.389Z,16.6
2017-09-26T10:36:56.021Z,18.4
2017-09-26T10:37:57.655Z,16.7
2017-09-26T10:38:59.287Z,16.3
2017-09-26T10:40:00.919Z,18.3
2017-09-26T10:41:02.555Z,17.4
2017-09-26T10:42:04.208Z,16.7
2017-09-26T10:43:05.847Z,15.8
2017-09-26T10:44:07.477Z,17.7
2017-09-26T10:45:09.123Z,19.3
2017-09-26T10:46:10.761Z,17.2
2017-09-26T10:47:12.393Z,18.6
2017-09-26T10:48:14.032Z,17.3
2017-09-26T10:49:15.668Z,19.2
2017-09-26T10:50:17.295Z,17.7
2017-09-26T10:51:18.928Z,17.0
2017-09-26T10:52:20.566Z,16.0
2017-09-26T10:53:22.200Z,17.9
2017-09-26T10:54:23.835Z,17.3
2017-09-26T10:55:25.475Z,17.2
2017-09-26T10:56:27.104Z,16.9
2017-09-26T10:57:28.736Z,15.2
2017-09-26T10:58:30.376Z,18.4
2017-09-26T10:59:32.008Z,17.7
2017-09-26T11:00:33.644Z,17.4
2017-09-26T11:01:35.278Z,18.2
2017-09-26T11:02:36.913Z,15.6
2017-09-26T11:03:38.546Z,18.2
2017-09-26T11:04:40.178Z,17.1
2017-09-26T11:05:41.812Z,18.7
2017-09-26T11:06:43.446Z,17.7
2017-09-26T11:07:45.080Z,16.6
2017-09-26T11:08:46.715Z,23.8
2017-09-26T11:09:48.351Z,17.3
2017-09-26T11:10:49.981Z,19.3
2017-09-26T11:11:51.617Z,15.2
2017-09-26T11:12:53.247Z,16.8
2017-09-26T11:13:54.881Z,18.1
2017-09-26T11:14:56.514Z,15.5
2017-09-26T11:15:58.148Z,16.0
2017-09-26T11:16:59.789Z,15.9
2017-09-26T11:18:01.414Z,15.2
2017-09-26T11:19:03.047Z,15.8
2017-09-26T11:20:04.679Z,15.7
2017-09-26T11:21:06.309Z,15.7
2017-09-26T11:22:07.952Z,14.7
2017-09-26T11:23:09.587Z,17.7
2017-09-26T11:24:11.218Z,16.1
2017-09-26T11:25:12.851Z,15.4
2017-09-26T11:26:14.483Z,14.8
2017-09-26T11:27:16.116Z,15.7
2017-09-26T11:28:17.747Z,15.0
2017-09-26T11:29:19.380Z,15.4
2017-09-26T11:30:21.012Z,15.8
2017-09-26T11:31:22.644Z,18.8
2017-09-26T11:32:24.896Z,19.1
2017-09-26T11:33:26.528Z,17.9
2017-09-26T11:34:28.159Z,17.0
2017-09-26T11:35:29.788Z,16.4
2017-09-26T11:36:31.422Z,17.2
2017-09-26T11:37:33.054Z,15.7
2017-09-26T11:38:34.684Z,17.8
2017-09-26T11:39:36.314Z,15.5
2017-09-26T11:40:37.945Z,15.4
2017-09-26T11:41:39.575Z,17.9
2017-09-26T11:42:41.207Z,18.5
2017-09-26T11:43:42.836Z,16.9
2017-09-26T11:44:44.468Z,17.6
2017-09-26T11:45:46.103Z,17.4
2017-09-26T11:46:47.734Z,16.3
2017-09-26T11:47:49.363Z,17.5
2017-09-26T11:48:50.997Z,16.0
2017-09-26T11:49:52.626Z,20.7
2017-09-26T11:50:54.257Z,19.0
2017-09-26T11:51:55.890Z,23.0
2017-09-26T11:52:57.521Z,24.2
2017-09-26T11:53:59.152Z,21.9
2017-09-26T11:55:00.783Z,22.2
2017-09-26T11:56:02.413Z,24.4
2017-09-26T11:57:04.043Z,24.0
2017-09-26T11:58:05.672Z,22.6
2017-09-26T11:59:07.306Z,24.9
2017-09-26T12:00:08.934Z,23.6
2017-09-26T12:01:10.565Z,23.7
2017-09-26T12:02:12.192Z,22.0
2017-09-26T12:03:13.820Z,23.8
2017-09-26T12:04:15.451Z,24.5
2017-09-26T12:05:17.081Z,21.5
2017-09-26T12:06:18.727Z,23.5
2017-09-26T12:07:20.355Z,24.6
2017-09-26T12:08:21.983Z,24.5
2017-09-26T12:09:23.612Z,24.6
2017-09-26T12:10:25.242Z,21.3
2017-09-26T12:11:26.871Z,21.8
2017-09-26T12:12:28.509Z,22.2
2017-09-26T12:13:30.142Z,27.3
2017-09-26T12:14:31.771Z,21.9
2017-09-26T12:15:33.401Z,24.7
2017-09-26T12:16:35.028Z,21.3
2017-09-26T12:17:36.656Z,24.2
2017-09-26T12:18:38.287Z,25.3
2017-09-26T12:19:39.914Z,25.0
2017-09-26T12:20:41.544Z,22.5
2017-09-26T12:21:43.175Z,23.7
2017-09-26T12:22:44.803Z,21.6
2017-09-26T12:23:46.433Z,25.8
2017-09-26T12:24:48.063Z,24.6
2017-09-26T12:25:49.718Z,24.1
2017-09-26T12:26:51.349Z,19.3
2017-09-26T12:27:55.595Z,21.9
2017-09-26T12:28:57.226Z,21.6
2017-09-26T12:29:58.855Z,22.8
2017-09-26T12:31:00.485Z,22.8
2017-09-26T12:32:02.118Z,23.2
2017-09-26T12:33:03.743Z,26.5
2017-09-26T12:34:05.436Z,23.7
2017-09-26T12:35:07.066Z,23.1
2017-09-26T12:36:10.072Z,22.7
2017-09-26T12:37:11.703Z,22.5
2017-09-26T12:38:13.332Z,26.3
2017-09-26T12:39:14.966Z,23.4
2017-09-26T12:40:16.941Z,22.7
2017-09-26T12:41:18.585Z,21.4
2017-09-26T12:42:20.781Z,21.0
2017-09-26T12:43:22.411Z,21.7
2017-09-26T12:44:24.040Z,23.3
2017-09-26T12:45:25.671Z,19.3
2017-09-26T12:46:27.316Z,21.8
2017-09-26T12:47:28.944Z,21.9
2017-09-26T12:48:30.578Z,21.9
2017-09-26T12:49:32.213Z,22.1
2017-09-26T12:50:33.854Z,19.4
2017-09-26T12:51:35.483Z,20.8
2017-09-26T12:52:37.113Z,17.9
2017-09-26T12:53:38.744Z,19.8
2017-09-26T12:54:40.388Z,22.1
2017-09-26T12:55:42.022Z,16.8
2017-09-26T12:56:43.653Z,19.3
2017-09-26T12:57:45.289Z,19.3
2017-09-26T12:58:46.921Z,17.8
2017-09-26T12:59:48.555Z,19.4
2017-09-26T13:00:50.188Z,22.5
2017-09-26T13:01:51.823Z,17.8
2017-09-26T13:02:54.162Z,18.3
2017-09-26T13:03:55.795Z,19.6
2017-09-26T13:04:57.434Z,18.2
2017-09-26T13:05:59.072Z,16.6
2017-09-26T13:07:00.708Z,17.4
2017-09-26T13:08:03.133Z,16.4
2017-09-26T13:09:05.512Z,15.9
2017-09-26T13:10:08.120Z,17.5
2017-09-26T13:11:09.758Z,15.9
2017-09-26T13:12:11.399Z,15.5
2017-09-26T13:13:13.034Z,15.1
2017-09-26T13:14:14.675Z,15.6
2017-09-26T13:15:16.311Z,15.2
2017-09-26T13:16:17.952Z,13.9
2017-09-26T13:17:19.590Z,14.3
2017-09-26T13:18:21.258Z,13.9
2017-09-26T13:19:22.873Z,14.7
2017-09-26T13:20:24.511Z,15.0
2017-09-26T13:21:26.847Z,14.7
2017-09-26T13:22:28.487Z,14.5
2017-09-26T13:23:30.128Z,14.4
2017-09-26T13:24:31.766Z,14.7
2017-09-26T13:25:33.406Z,13.8
2017-09-26T13:26:35.048Z,12.9
2017-09-26T13:27:36.982Z,14.1
2017-09-26T13:28:38.622Z,13.7
2017-09-26T13:29:40.259Z,13.8
2017-09-26T13:30:41.895Z,13.7
2017-09-26T13:31:43.534Z,12.7
2017-09-26T13:32:45.169Z,12.7
2017-09-26T13:33:46.867Z,13.1
2017-09-26T13:34:48.499Z,12.6
2017-09-26T13:35:50.134Z,13.2
2017-09-26T13:36:51.799Z,14.9
2017-09-26T13:37:53.434Z,14.1
2017-09-26T13:38:55.072Z,13.4
2017-09-26T13:39:56.718Z,12.8
2017-09-26T13:40:58.364Z,12.5